sensor_id;sensor_type;location;lat;lon;timestamp;noise_LAeq;noise_LA_min;noise_LA_max;noise_LA01;noise_LA95
57439;Laerm;43282;47.188;8.896;2022-07-29T00:01:44;44.49;38.37;55.25;;
57439;Laerm;43282;47.188;8.896;2022-07-29T00:04:10;43.41;38.21;56.61;;
57439;Laerm;43282;47.188;8.896;2022-07-29T00:06:35;45.44;38.95;56.42;;
57439;Laerm;43282;47.188;8.896;2022-07-29T00:09:01;46.18;38.21;58.60;;
57439;Laerm;43282;47.188;8.896;2022-07-29T00:11:26;50.01;38.52;68.01;;
57439;Laerm;43282;47.188;8.896;2022-07-29T00:13:52;49.20;38.95;67.86;;
57439;Laerm;43282;47.188;8.896;2022-07-29T00:16:17;46.99;40.53;63.81;;
57439;Laerm;43282;47.188;8.896;2022-07-29T00:18:43;49.30;40.43;64.58;;
57439;Laerm;43282;47.188;8.896;2022-07-29T00:21:08;41.81;38.67;49.40;;
57439;Laerm;43282;47.188;8.896;2022-07-29T00:23:33;43.60;38.52;55.12;;
57439;Laerm;43282;47.188;8.896;2022-07-29T00:25:59;43.30;38.21;53.96;;
57439;Laerm;43282;47.188;8.896;2022-07-29T00:28:24;41.77;37.88;53.35;;
57439;Laerm;43282;47.188;8.896;2022-07-29T00:30:49;45.00;38.37;65.12;;
57439;Laerm;43282;47.188;8.896;2022-07-29T00:33:15;44.33;37.70;60.36;;
57439;Laerm;43282;47.188;8.896;2022-07-29T00:35:40;49.33;40.43;63.12;;
57439;Laerm;43282;47.188;8.896;2022-07-29T00:38:08;43.71;37.70;57.78;;
57439;Laerm;43282;47.188;8.896;2022-07-29T00:40:34;49.86;39.46;66.33;;
57439;Laerm;43282;47.188;8.896;2022-07-29T00:42:59;42.12;38.05;51.40;;
57439;Laerm;43282;47.188;8.896;2022-07-29T00:45:24;43.06;38.05;58.42;;
57439;Laerm;43282;47.188;8.896;2022-07-29T00:47:50;41.85;37.32;52.52;;
57439;Laerm;43282;47.188;8.896;2022-07-29T00:50:15;43.83;38.21;58.21;;
57439;Laerm;43282;47.188;8.896;2022-07-29T00:52:41;42.26;38.21;52.91;;
57439;Laerm;43282;47.188;8.896;2022-07-29T00:55:08;42.99;37.32;55.72;;
57439;Laerm;43282;47.188;8.896;2022-07-29T00:57:34;44.71;37.32;57.84;;
57439;Laerm;43282;47.188;8.896;2022-07-29T01:00:00;42.73;36.69;57.01;;
57439;Laerm;43282;47.188;8.896;2022-07-29T01:02:25;50.87;40.89;67.79;;
57439;Laerm;43282;47.188;8.896;2022-07-29T01:04:51;50.80;38.21;71.43;;
57439;Laerm;43282;47.188;8.896;2022-07-29T01:07:17;45.60;39.70;55.79;;
57439;Laerm;43282;47.188;8.896;2022-07-29T01:09:43;42.14;36.45;52.10;;
57439;Laerm;43282;47.188;8.896;2022-07-29T01:12:09;44.38;38.52;55.42;;
57439;Laerm;43282;47.188;8.896;2022-07-29T01:14:35;44.84;36.69;62.48;;
57439;Laerm;43282;47.188;8.896;2022-07-29T01:17:12;43.73;37.12;57.03;;
57439;Laerm;43282;47.188;8.896;2022-07-29T01:20:02;48.12;37.32;65.61;;
57439;Laerm;43282;47.188;8.896;2022-07-29T01:30:11;47.30;38.52;59.68;;
57439;Laerm;43282;47.188;8.896;2022-07-29T01:32:37;47.63;36.45;62.21;;
57439;Laerm;43282;47.188;8.896;2022-07-29T01:35:05;48.84;39.21;65.67;;
57439;Laerm;43282;47.188;8.896;2022-07-29T01:40:14;49.61;38.67;76.06;;
57439;Laerm;43282;47.188;8.896;2022-07-29T01:42:43;48.88;40.03;66.16;;
57439;Laerm;43282;47.188;8.896;2022-07-29T01:45:17;50.32;40.53;63.55;;
57439;Laerm;43282;47.188;8.896;2022-07-29T01:47:44;50.19;39.11;69.23;;
57439;Laerm;43282;47.188;8.896;2022-07-29T01:50:12;46.21;38.05;65.56;;
57439;Laerm;43282;47.188;8.896;2022-07-29T01:52:43;45.16;39.34;60.12;;
57439;Laerm;43282;47.188;8.896;2022-07-29T01:55:14;45.90;38.21;60.92;;
57439;Laerm;43282;47.188;8.896;2022-07-29T01:57:42;47.23;39.21;61.66;;
57439;Laerm;43282;47.188;8.896;2022-07-29T02:00:08;49.10;40.03;62.55;;
57439;Laerm;43282;47.188;8.896;2022-07-29T02:02:33;43.73;36.69;58.16;;
57439;Laerm;43282;47.188;8.896;2022-07-29T02:05:00;43.42;37.70;56.04;;
57439;Laerm;43282;47.188;8.896;2022-07-29T02:07:27;47.53;38.81;71.53;;
57439;Laerm;43282;47.188;8.896;2022-07-29T02:09:53;49.10;39.70;62.11;;
57439;Laerm;43282;47.188;8.896;2022-07-29T02:12:19;45.86;39.58;62.05;;
57439;Laerm;43282;47.188;8.896;2022-07-29T02:14:51;45.92;39.34;55.94;;
57439;Laerm;43282;47.188;8.896;2022-07-29T02:17:21;47.93;40.33;65.09;;
57439;Laerm;43282;47.188;8.896;2022-07-29T02:19:48;49.98;39.21;64.63;;
57439;Laerm;43282;47.188;8.896;2022-07-29T02:22:14;48.00;41.53;63.76;;
57439;Laerm;43282;47.188;8.896;2022-07-29T02:24:41;49.11;39.58;61.52;;
57439;Laerm;43282;47.188;8.896;2022-07-29T02:27:07;47.30;39.70;60.43;;
57439;Laerm;43282;47.188;8.896;2022-07-29T02:29:34;48.32;40.89;61.92;;
57439;Laerm;43282;47.188;8.896;2022-07-29T02:32:00;51.69;42.76;66.03;;
57439;Laerm;43282;47.188;8.896;2022-07-29T02:34:27;47.04;38.81;64.24;;
57439;Laerm;43282;47.188;8.896;2022-07-29T02:36:53;47.60;39.81;58.68;;
57439;Laerm;43282;47.188;8.896;2022-07-29T02:39:20;48.64;40.80;63.97;;
57439;Laerm;43282;47.188;8.896;2022-07-29T02:41:47;50.36;40.62;67.21;;
57439;Laerm;43282;47.188;8.896;2022-07-29T02:44:14;47.45;41.38;61.05;;
57439;Laerm;43282;47.188;8.896;2022-07-29T02:47:00;49.42;41.53;63.43;;
57439;Laerm;43282;47.188;8.896;2022-07-29T02:49:31;49.24;40.62;65.46;;
57439;Laerm;43282;47.188;8.896;2022-07-29T02:52:01;50.36;39.34;67.43;;
57439;Laerm;43282;47.188;8.896;2022-07-29T02:54:31;47.59;40.79;65.68;;
57439;Laerm;43282;47.188;8.896;2022-07-29T02:56:59;51.74;41.06;65.53;;
57439;Laerm;43282;47.188;8.896;2022-07-29T02:59:26;50.31;40.62;67.71;;
57439;Laerm;43282;47.188;8.896;2022-07-29T03:01:52;53.26;41.26;70.31;;
57439;Laerm;43282;47.188;8.896;2022-07-29T03:04:19;47.70;39.92;62.69;;
57439;Laerm;43282;47.188;8.896;2022-07-29T03:06:45;51.74;43.04;69.40;;
57439;Laerm;43282;47.188;8.896;2022-07-29T03:09:11;49.26;41.30;64.89;;
57439;Laerm;43282;47.188;8.896;2022-07-29T03:11:37;48.51;40.43;64.91;;
57439;Laerm;43282;47.188;8.896;2022-07-29T03:14:04;49.41;41.75;65.00;;
57439;Laerm;43282;47.188;8.896;2022-07-29T03:16:29;64.37;42.41;82.68;;
57439;Laerm;43282;47.188;8.896;2022-07-29T03:18:55;51.75;40.89;65.01;;
57439;Laerm;43282;47.188;8.896;2022-07-29T03:21:20;49.57;41.53;66.36;;
57439;Laerm;43282;47.188;8.896;2022-07-29T03:23:46;51.04;41.82;66.49;;
57439;Laerm;43282;47.188;8.896;2022-07-29T03:26:12;52.84;42.29;67.07;;
57439;Laerm;43282;47.188;8.896;2022-07-29T03:28:37;49.73;41.46;64.37;;
57439;Laerm;43282;47.188;8.896;2022-07-29T03:31:02;52.21;42.29;66.77;;
57439;Laerm;43282;47.188;8.896;2022-07-29T03:33:28;51.16;41.61;67.72;;
57439;Laerm;43282;47.188;8.896;2022-07-29T03:35:55;52.82;42.35;78.02;;
57439;Laerm;43282;47.188;8.896;2022-07-29T03:38:20;54.20;41.75;66.19;;
57439;Laerm;43282;47.188;8.896;2022-07-29T03:40:53;52.49;42.98;65.70;;
57439;Laerm;43282;47.188;8.896;2022-07-29T03:43:19;53.49;45.01;65.69;;
57439;Laerm;43282;47.188;8.896;2022-07-29T03:45:47;52.19;44.20;66.82;;
57439;Laerm;43282;47.188;8.896;2022-07-29T03:48:14;53.36;43.54;70.46;;
57439;Laerm;43282;47.188;8.896;2022-07-29T03:50:40;53.35;44.35;66.61;;
57439;Laerm;43282;47.188;8.896;2022-07-29T03:53:07;55.38;44.54;69.15;;
57439;Laerm;43282;47.188;8.896;2022-07-29T03:55:35;54.62;44.94;69.21;;
57439;Laerm;43282;47.188;8.896;2022-07-29T03:58:01;53.88;44.69;68.54;;
57439;Laerm;43282;47.188;8.896;2022-07-29T04:00:27;52.90;44.76;64.55;;
57439;Laerm;43282;47.188;8.896;2022-07-29T04:02:52;54.32;44.07;67.33;;
57439;Laerm;43282;47.188;8.896;2022-07-29T04:05:18;54.25;42.65;70.38;;
57439;Laerm;43282;47.188;8.896;2022-07-29T04:07:44;54.69;42.22;68.71;;
57439;Laerm;43282;47.188;8.896;2022-07-29T04:10:09;52.10;44.39;66.09;;
57439;Laerm;43282;47.188;8.896;2022-07-29T04:12:35;53.69;46.10;65.05;;
57439;Laerm;43282;47.188;8.896;2022-07-29T04:15:01;54.61;45.42;73.76;;
57439;Laerm;43282;47.188;8.896;2022-07-29T04:17:26;52.74;44.76;67.15;;
57439;Laerm;43282;47.188;8.896;2022-07-29T04:19:52;55.53;45.67;70.25;;
57439;Laerm;43282;47.188;8.896;2022-07-29T04:22:17;55.97;48.37;69.40;;
57439;Laerm;43282;47.188;8.896;2022-07-29T04:24:43;55.94;46.33;70.26;;
57439;Laerm;43282;47.188;8.896;2022-07-29T04:27:08;53.95;45.01;68.77;;
57439;Laerm;43282;47.188;8.896;2022-07-29T04:29:33;49.84;44.62;58.04;;
57439;Laerm;43282;47.188;8.896;2022-07-29T04:31:59;55.43;44.83;69.09;;
57439;Laerm;43282;47.188;8.896;2022-07-29T04:34:24;51.17;43.14;65.58;;
57439;Laerm;43282;47.188;8.896;2022-07-29T04:36:49;54.42;43.99;67.44;;
57439;Laerm;43282;47.188;8.896;2022-07-29T04:39:15;58.48;46.55;81.26;;
57439;Laerm;43282;47.188;8.896;2022-07-29T04:41:40;58.78;46.40;74.32;;
57439;Laerm;43282;47.188;8.896;2022-07-29T04:44:05;56.96;48.73;67.05;;
57439;Laerm;43282;47.188;8.896;2022-07-29T04:46:31;58.17;50.63;67.19;;
57439;Laerm;43282;47.188;8.896;2022-07-29T04:48:57;58.10;46.55;71.72;;
57439;Laerm;43282;47.188;8.896;2022-07-29T04:51:22;59.38;46.23;77.03;;
57439;Laerm;43282;47.188;8.896;2022-07-29T04:53:47;57.13;46.40;67.86;;
57439;Laerm;43282;47.188;8.896;2022-07-29T04:56:13;57.57;47.68;71.88;;
57439;Laerm;43282;47.188;8.896;2022-07-29T04:58:38;57.05;48.83;67.10;;
57439;Laerm;43282;47.188;8.896;2022-07-29T05:01:03;60.00;47.70;76.66;;
57439;Laerm;43282;47.188;8.896;2022-07-29T05:03:29;58.06;46.50;70.88;;
57439;Laerm;43282;47.188;8.896;2022-07-29T05:05:54;57.28;47.76;69.47;;
57439;Laerm;43282;47.188;8.896;2022-07-29T05:08:19;58.03;50.68;68.62;;
57439;Laerm;43282;47.188;8.896;2022-07-29T05:10:45;60.34;49.66;79.73;;
57439;Laerm;43282;47.188;8.896;2022-07-29T05:13:11;59.24;51.33;68.11;;
57439;Laerm;43282;47.188;8.896;2022-07-29T05:15:36;59.43;50.81;70.81;;
57439;Laerm;43282;47.188;8.896;2022-07-29T05:18:02;58.85;49.83;75.59;;
57439;Laerm;43282;47.188;8.896;2022-07-29T05:20:27;60.44;51.29;74.90;;
57439;Laerm;43282;47.188;8.896;2022-07-29T05:22:54;56.56;48.68;66.09;;
57439;Laerm;43282;47.188;8.896;2022-07-29T05:25:20;58.42;49.00;70.39;;
57439;Laerm;43282;47.188;8.896;2022-07-29T05:27:45;60.19;49.10;74.20;;
57439;Laerm;43282;47.188;8.896;2022-07-29T05:30:11;56.86;49.95;66.90;;
57439;Laerm;43282;47.188;8.896;2022-07-29T05:32:36;57.46;48.92;68.83;;
57439;Laerm;43282;47.188;8.896;2022-07-29T05:35:01;57.92;49.47;74.98;;
57439;Laerm;43282;47.188;8.896;2022-07-29T05:37:27;57.22;48.99;68.93;;
57439;Laerm;43282;47.188;8.896;2022-07-29T05:39:53;59.57;48.43;74.43;;
57439;Laerm;43282;47.188;8.896;2022-07-29T05:42:18;57.01;48.20;70.76;;
57439;Laerm;43282;47.188;8.896;2022-07-29T05:44:43;58.36;49.59;69.37;;
57439;Laerm;43282;47.188;8.896;2022-07-29T05:47:09;60.28;50.34;81.85;;
57439;Laerm;43282;47.188;8.896;2022-07-29T05:49:34;59.94;48.69;76.77;;
57439;Laerm;43282;47.188;8.896;2022-07-29T05:51:59;55.97;48.88;65.16;;
57439;Laerm;43282;47.188;8.896;2022-07-29T05:54:25;58.92;48.61;74.28;;
57439;Laerm;43282;47.188;8.896;2022-07-29T05:56:54;59.20;48.76;72.37;;
57439;Laerm;43282;47.188;8.896;2022-07-29T05:59:39;57.46;46.93;72.20;;
57439;Laerm;43282;47.188;8.896;2022-07-29T06:02:04;58.13;50.49;72.70;;
57439;Laerm;43282;47.188;8.896;2022-07-29T06:04:30;58.84;50.13;71.25;;
57439;Laerm;43282;47.188;8.896;2022-07-29T06:06:56;57.91;49.06;78.09;;
57439;Laerm;43282;47.188;8.896;2022-07-29T06:09:21;57.10;48.07;68.79;;
57439;Laerm;43282;47.188;8.896;2022-07-29T06:11:48;56.37;48.42;65.31;;
57439;Laerm;43282;47.188;8.896;2022-07-29T06:14:13;58.79;49.36;70.06;;
57439;Laerm;43282;47.188;8.896;2022-07-29T06:16:38;57.70;50.66;66.92;;
57439;Laerm;43282;47.188;8.896;2022-07-29T06:19:04;57.60;48.95;66.39;;
57439;Laerm;43282;47.188;8.896;2022-07-29T06:21:32;60.27;48.16;74.21;;
57439;Laerm;43282;47.188;8.896;2022-07-29T06:23:59;58.36;51.30;66.84;;
57439;Laerm;43282;47.188;8.896;2022-07-29T06:26:24;57.88;49.56;76.03;;
57439;Laerm;43282;47.188;8.896;2022-07-29T06:28:50;55.35;46.76;67.33;;
57439;Laerm;43282;47.188;8.896;2022-07-29T06:31:15;56.48;43.72;70.60;;
57439;Laerm;43282;47.188;8.896;2022-07-29T06:33:40;57.01;44.43;78.26;;
57439;Laerm;43282;47.188;8.896;2022-07-29T06:36:06;54.41;44.69;67.91;;
57439;Laerm;43282;47.188;8.896;2022-07-29T06:38:32;56.30;44.19;69.86;;
57439;Laerm;43282;47.188;8.896;2022-07-29T06:40:57;57.42;43.81;70.60;;
57439;Laerm;43282;47.188;8.896;2022-07-29T06:43:31;55.77;44.07;69.62;;
57439;Laerm;43282;47.188;8.896;2022-07-29T06:45:58;57.25;42.82;78.09;;
57439;Laerm;43282;47.188;8.896;2022-07-29T06:48:23;57.76;43.24;71.99;;
57439;Laerm;43282;47.188;8.896;2022-07-29T06:50:49;55.94;43.63;70.12;;
57439;Laerm;43282;47.188;8.896;2022-07-29T06:53:14;61.29;47.05;79.60;;
57439;Laerm;43282;47.188;8.896;2022-07-29T06:55:39;58.00;46.43;71.04;;
57439;Laerm;43282;47.188;8.896;2022-07-29T06:58:05;55.36;45.57;66.65;;
57439;Laerm;43282;47.188;8.896;2022-07-29T07:00:32;56.74;43.09;70.05;;
57439;Laerm;43282;47.188;8.896;2022-07-29T07:02:57;56.03;43.54;72.76;;
57439;Laerm;43282;47.188;8.896;2022-07-29T07:05:22;55.12;43.24;68.60;;
57439;Laerm;43282;47.188;8.896;2022-07-29T07:07:48;57.11;43.00;72.36;;
57439;Laerm;43282;47.188;8.896;2022-07-29T07:10:13;57.13;46.48;70.93;;
57439;Laerm;43282;47.188;8.896;2022-07-29T07:12:38;53.70;44.76;66.39;;
57439;Laerm;43282;47.188;8.896;2022-07-29T07:15:04;56.93;45.01;71.57;;
57439;Laerm;43282;47.188;8.896;2022-07-29T07:17:29;55.68;45.42;66.73;;
57439;Laerm;43282;47.188;8.896;2022-07-29T07:19:55;66.31;46.25;80.34;;
57439;Laerm;43282;47.188;8.896;2022-07-29T07:22:20;69.97;45.91;86.27;;
57439;Laerm;43282;47.188;8.896;2022-07-29T07:24:45;56.95;44.62;67.08;;
57439;Laerm;43282;47.188;8.896;2022-07-29T07:27:10;56.94;44.07;71.00;;
57439;Laerm;43282;47.188;8.896;2022-07-29T07:29:36;53.52;42.93;66.36;;
57439;Laerm;43282;47.188;8.896;2022-07-29T07:32:01;57.37;45.36;70.53;;
57439;Laerm;43282;47.188;8.896;2022-07-29T07:34:27;54.67;45.77;66.89;;
57439;Laerm;43282;47.188;8.896;2022-07-29T07:36:52;55.97;44.76;66.11;;
57439;Laerm;43282;47.188;8.896;2022-07-29T07:39:17;54.86;43.99;72.37;;
57439;Laerm;43282;47.188;8.896;2022-07-29T07:41:42;55.14;44.66;68.51;;
57439;Laerm;43282;47.188;8.896;2022-07-29T07:44:08;55.90;44.11;69.08;;
57439;Laerm;43282;47.188;8.896;2022-07-29T07:46:33;56.33;43.14;70.39;;
57439;Laerm;43282;47.188;8.896;2022-07-29T07:48:59;57.50;43.24;72.20;;
57439;Laerm;43282;47.188;8.896;2022-07-29T07:51:24;56.70;44.51;70.58;;
57439;Laerm;43282;47.188;8.896;2022-07-29T07:53:49;56.35;45.99;69.51;;
57439;Laerm;43282;47.188;8.896;2022-07-29T07:56:15;56.54;43.19;71.01;;
57439;Laerm;43282;47.188;8.896;2022-07-29T07:58:41;54.26;42.29;66.46;;
57439;Laerm;43282;47.188;8.896;2022-07-29T08:01:06;56.85;41.96;71.22;;
57439;Laerm;43282;47.188;8.896;2022-07-29T08:03:32;59.92;45.23;79.16;;
57439;Laerm;43282;47.188;8.896;2022-07-29T08:05:57;67.12;48.25;85.55;;
57439;Laerm;43282;47.188;8.896;2022-07-29T08:08:23;55.91;45.57;68.84;;
57439;Laerm;43282;47.188;8.896;2022-07-29T08:10:48;56.89;44.15;74.19;;
57439;Laerm;43282;47.188;8.896;2022-07-29T08:13:25;56.77;44.31;80.31;;
57439;Laerm;43282;47.188;8.896;2022-07-29T08:15:52;61.11;45.04;79.95;;
57439;Laerm;43282;47.188;8.896;2022-07-29T08:18:28;55.45;44.76;67.13;;
57439;Laerm;43282;47.188;8.896;2022-07-29T08:20:54;59.02;46.64;75.84;;
57439;Laerm;43282;47.188;8.896;2022-07-29T08:23:19;56.90;44.62;72.62;;
57439;Laerm;43282;47.188;8.896;2022-07-29T08:25:45;58.00;46.02;72.20;;
57439;Laerm;43282;47.188;8.896;2022-07-29T08:28:10;56.04;45.23;67.01;;
57439;Laerm;43282;47.188;8.896;2022-07-29T08:30:36;58.47;44.51;75.11;;
57439;Laerm;43282;47.188;8.896;2022-07-29T08:33:01;56.93;44.94;69.55;;
57439;Laerm;43282;47.188;8.896;2022-07-29T08:35:27;56.06;45.83;66.89;;
57439;Laerm;43282;47.188;8.896;2022-07-29T08:37:52;58.64;46.89;79.19;;
57439;Laerm;43282;47.188;8.896;2022-07-29T08:40:18;54.12;44.27;65.24;;
57439;Laerm;43282;47.188;8.896;2022-07-29T08:42:44;56.88;45.66;73.15;;
57439;Laerm;43282;47.188;8.896;2022-07-29T08:45:10;56.94;44.19;71.39;;
57439;Laerm;43282;47.188;8.896;2022-07-29T08:47:36;57.37;45.65;70.43;;
57439;Laerm;43282;47.188;8.896;2022-07-29T08:50:04;57.64;48.29;73.09;;
57439;Laerm;43282;47.188;8.896;2022-07-29T08:52:30;56.32;46.07;70.67;;
57439;Laerm;43282;47.188;8.896;2022-07-29T08:54:57;56.17;46.89;68.48;;
57439;Laerm;43282;47.188;8.896;2022-07-29T08:57:23;56.88;46.40;67.14;;
57439;Laerm;43282;47.188;8.896;2022-07-29T08:59:49;61.84;46.82;76.12;;
57439;Laerm;43282;47.188;8.896;2022-07-29T09:02:21;58.07;46.97;73.73;;
57439;Laerm;43282;47.188;8.896;2022-07-29T09:04:47;57.34;47.72;67.31;;
57439;Laerm;43282;47.188;8.896;2022-07-29T09:07:18;55.69;46.89;68.90;;
57439;Laerm;43282;47.188;8.896;2022-07-29T09:09:44;55.28;46.78;66.50;;
57439;Laerm;43282;47.188;8.896;2022-07-29T09:12:12;56.20;46.40;68.30;;
57439;Laerm;43282;47.188;8.896;2022-07-29T09:14:38;61.40;47.40;78.17;;
57439;Laerm;43282;47.188;8.896;2022-07-29T09:17:04;59.50;46.62;78.46;;
57439;Laerm;43282;47.188;8.896;2022-07-29T09:19:30;59.06;48.34;77.00;;
57439;Laerm;43282;47.188;8.896;2022-07-29T09:21:56;55.02;45.63;69.76;;
57439;Laerm;43282;47.188;8.896;2022-07-29T09:24:26;55.34;46.93;66.11;;
57439;Laerm;43282;47.188;8.896;2022-07-29T09:26:52;58.18;47.26;69.57;;
57439;Laerm;43282;47.188;8.896;2022-07-29T09:29:18;56.23;47.16;67.97;;
57439;Laerm;43282;47.188;8.896;2022-07-29T09:31:48;57.32;46.73;71.65;;
57439;Laerm;43282;47.188;8.896;2022-07-29T09:34:24;57.33;46.33;75.19;;
57439;Laerm;43282;47.188;8.896;2022-07-29T09:36:51;59.37;44.47;75.25;;
57439;Laerm;43282;47.188;8.896;2022-07-29T09:39:26;53.84;43.90;67.09;;
57439;Laerm;43282;47.188;8.896;2022-07-29T09:41:53;56.46;45.30;69.50;;
57439;Laerm;43282;47.188;8.896;2022-07-29T09:44:18;55.11;43.81;69.29;;
57439;Laerm;43282;47.188;8.896;2022-07-29T09:47:00;54.72;44.97;69.15;;
57439;Laerm;43282;47.188;8.896;2022-07-29T09:49:32;57.76;45.99;68.46;;
57439;Laerm;43282;47.188;8.896;2022-07-29T09:51:58;53.50;44.15;76.45;;
57439;Laerm;43282;47.188;8.896;2022-07-29T09:54:25;58.47;45.63;67.72;;
57439;Laerm;43282;47.188;8.896;2022-07-29T09:56:51;56.27;45.54;72.21;;
57439;Laerm;43282;47.188;8.896;2022-07-29T09:59:17;63.03;45.97;84.09;;
57439;Laerm;43282;47.188;8.896;2022-07-29T10:01:42;56.84;45.83;70.49;;
57439;Laerm;43282;47.188;8.896;2022-07-29T10:04:08;58.20;46.28;74.13;;
57439;Laerm;43282;47.188;8.896;2022-07-29T10:06:33;55.83;44.31;73.17;;
57439;Laerm;43282;47.188;8.896;2022-07-29T10:09:08;56.92;44.62;70.67;;
57439;Laerm;43282;47.188;8.896;2022-07-29T10:11:34;56.60;44.43;66.33;;
57439;Laerm;43282;47.188;8.896;2022-07-29T10:14:01;58.22;45.20;71.61;;
57439;Laerm;43282;47.188;8.896;2022-07-29T10:16:26;63.12;45.77;84.53;;
57439;Laerm;43282;47.188;8.896;2022-07-29T10:18:57;55.50;44.43;69.88;;
57439;Laerm;43282;47.188;8.896;2022-07-29T10:21:23;56.79;44.35;69.44;;
57439;Laerm;43282;47.188;8.896;2022-07-29T10:23:48;59.64;44.73;80.87;;
57439;Laerm;43282;47.188;8.896;2022-07-29T10:26:14;54.72;43.94;66.28;;
57439;Laerm;43282;47.188;8.896;2022-07-29T10:28:40;51.77;43.04;65.99;;
57439;Laerm;43282;47.188;8.896;2022-07-29T10:31:06;53.51;44.01;69.88;;
57439;Laerm;43282;47.188;8.896;2022-07-29T10:33:41;54.72;42.59;66.33;;
57439;Laerm;43282;47.188;8.896;2022-07-29T10:38:44;59.56;42.47;77.14;;
57439;Laerm;43282;47.188;8.896;2022-07-29T10:43:51;58.94;43.39;81.07;;
57439;Laerm;43282;47.188;8.896;2022-07-29T10:46:18;54.74;42.16;67.41;;
57439;Laerm;43282;47.188;8.896;2022-07-29T10:49:05;56.54;42.65;71.59;;
57439;Laerm;43282;47.188;8.896;2022-07-29T10:54:14;55.72;42.16;67.46;;
57439;Laerm;43282;47.188;8.896;2022-07-29T10:56:40;54.73;42.35;69.49;;
57439;Laerm;43282;47.188;8.896;2022-07-29T11:01:43;55.31;43.44;68.27;;
57439;Laerm;43282;47.188;8.896;2022-07-29T11:04:08;54.88;42.29;67.42;;
57439;Laerm;43282;47.188;8.896;2022-07-29T11:09:18;56.86;42.98;70.33;;
57439;Laerm;43282;47.188;8.896;2022-07-29T11:11:44;54.98;42.53;67.70;;
57439;Laerm;43282;47.188;8.896;2022-07-29T11:14:10;57.33;42.47;76.19;;
57439;Laerm;43282;47.188;8.896;2022-07-29T11:16:57;53.79;42.47;66.71;;
57439;Laerm;43282;47.188;8.896;2022-07-29T11:19:23;55.38;42.22;68.08;;
57439;Laerm;43282;47.188;8.896;2022-07-29T11:21:48;55.42;42.76;67.38;;
57439;Laerm;43282;47.188;8.896;2022-07-29T11:24:21;56.48;42.41;79.57;;
57439;Laerm;43282;47.188;8.896;2022-07-29T11:29:32;55.35;42.98;66.35;;
57439;Laerm;43282;47.188;8.896;2022-07-29T11:32:07;53.91;43.34;67.65;;
57439;Laerm;43282;47.188;8.896;2022-07-29T11:34:39;54.46;43.49;65.54;;
57439;Laerm;43282;47.188;8.896;2022-07-29T11:39:41;58.33;44.31;72.86;;
57439;Laerm;43282;47.188;8.896;2022-07-29T11:47:22;53.08;43.14;63.63;;
57439;Laerm;43282;47.188;8.896;2022-07-29T11:49:48;57.51;43.54;70.96;;
57439;Laerm;43282;47.188;8.896;2022-07-29T11:52:13;61.07;43.58;77.35;;
57439;Laerm;43282;47.188;8.896;2022-07-29T11:54:38;58.47;41.75;76.19;;
57439;Laerm;43282;47.188;8.896;2022-07-29T11:57:06;55.88;41.89;67.88;;
57439;Laerm;43282;47.188;8.896;2022-07-29T11:59:32;54.39;41.82;69.19;;
57439;Laerm;43282;47.188;8.896;2022-07-29T12:02:03;55.52;43.19;66.98;;
57439;Laerm;43282;47.188;8.896;2022-07-29T12:04:28;54.99;42.88;68.58;;
57439;Laerm;43282;47.188;8.896;2022-07-29T12:06:55;54.89;43.24;67.95;;
57439;Laerm;43282;47.188;8.896;2022-07-29T12:09:21;54.92;42.47;68.56;;
57439;Laerm;43282;47.188;8.896;2022-07-29T12:11:47;55.70;42.16;69.29;;
57439;Laerm;43282;47.188;8.896;2022-07-29T12:16:50;56.81;42.03;73.66;;
57439;Laerm;43282;47.188;8.896;2022-07-29T12:19:15;54.90;42.35;68.11;;
57439;Laerm;43282;47.188;8.896;2022-07-29T12:21:47;55.26;42.09;78.62;;
57439;Laerm;43282;47.188;8.896;2022-07-29T12:24:13;55.50;41.68;72.12;;
57439;Laerm;43282;47.188;8.896;2022-07-29T12:26:52;54.70;42.47;71.73;;
57439;Laerm;43282;47.188;8.896;2022-07-29T12:29:18;54.49;42.98;69.60;;
57439;Laerm;43282;47.188;8.896;2022-07-29T12:31:43;54.29;42.35;67.25;;
57439;Laerm;43282;47.188;8.896;2022-07-29T12:34:12;57.04;43.46;70.14;;
57439;Laerm;43282;47.188;8.896;2022-07-29T12:36:40;56.99;42.88;72.10;;
57439;Laerm;43282;47.188;8.896;2022-07-29T12:39:06;56.51;44.11;69.70;;
57439;Laerm;43282;47.188;8.896;2022-07-29T12:41:31;55.42;42.71;69.79;;
57439;Laerm;43282;47.188;8.896;2022-07-29T12:43:57;54.81;43.04;66.60;;
57439;Laerm;43282;47.188;8.896;2022-07-29T12:46:22;54.96;43.39;69.21;;
57439;Laerm;43282;47.188;8.896;2022-07-29T12:48:50;54.22;43.34;64.12;;
57439;Laerm;43282;47.188;8.896;2022-07-29T12:51:16;57.73;44.11;72.32;;
57439;Laerm;43282;47.188;8.896;2022-07-29T12:53:51;56.08;44.87;69.82;;
57439;Laerm;43282;47.188;8.896;2022-07-29T12:56:26;57.13;43.81;69.29;;
57439;Laerm;43282;47.188;8.896;2022-07-29T12:58:51;56.79;42.16;75.30;;
57439;Laerm;43282;47.188;8.896;2022-07-29T13:01:17;60.87;44.31;79.24;;
57439;Laerm;43282;47.188;8.896;2022-07-29T13:03:45;56.74;44.87;71.16;;
57439;Laerm;43282;47.188;8.896;2022-07-29T13:08:58;55.70;44.90;67.15;;
57439;Laerm;43282;47.188;8.896;2022-07-29T13:11:30;55.31;45.14;66.71;;
57439;Laerm;43282;47.188;8.896;2022-07-29T13:13:55;57.55;44.97;67.85;;
57439;Laerm;43282;47.188;8.896;2022-07-29T13:16:21;56.01;45.33;66.74;;
57439;Laerm;43282;47.188;8.896;2022-07-29T13:18:46;53.53;44.27;67.25;;
57439;Laerm;43282;47.188;8.896;2022-07-29T13:21:13;57.25;43.68;78.57;;
57439;Laerm;43282;47.188;8.896;2022-07-29T13:23:38;58.31;45.75;69.39;;
57439;Laerm;43282;47.188;8.896;2022-07-29T13:26:10;58.05;44.52;68.22;;
57439;Laerm;43282;47.188;8.896;2022-07-29T13:28:36;56.46;43.49;71.19;;
57439;Laerm;43282;47.188;8.896;2022-07-29T13:31:01;55.50;44.51;66.26;;
57439;Laerm;43282;47.188;8.896;2022-07-29T13:33:27;57.78;44.73;71.52;;
57439;Laerm;43282;47.188;8.896;2022-07-29T13:35:52;58.32;44.19;70.04;;
57439;Laerm;43282;47.188;8.896;2022-07-29T13:38:17;57.20;45.51;73.23;;
57439;Laerm;43282;47.188;8.896;2022-07-29T13:40:43;54.99;45.51;66.75;;
57439;Laerm;43282;47.188;8.896;2022-07-29T13:43:09;56.34;46.13;68.35;;
57439;Laerm;43282;47.188;8.896;2022-07-29T13:45:34;53.91;43.99;65.92;;
57439;Laerm;43282;47.188;8.896;2022-07-29T13:48:00;56.77;46.84;67.97;;
57439;Laerm;43282;47.188;8.896;2022-07-29T13:50:26;58.73;49.14;69.03;;
57439;Laerm;43282;47.188;8.896;2022-07-29T13:52:51;58.85;48.28;71.46;;
57439;Laerm;43282;47.188;8.896;2022-07-29T13:55:16;65.05;48.02;80.02;;
57439;Laerm;43282;47.188;8.896;2022-07-29T13:57:42;58.69;45.91;72.86;;
57439;Laerm;43282;47.188;8.896;2022-07-29T14:00:07;59.60;46.20;70.46;;
57439;Laerm;43282;47.188;8.896;2022-07-29T14:02:33;63.93;47.10;75.69;;
57439;Laerm;43282;47.188;8.896;2022-07-29T14:04:58;59.40;47.54;68.41;;
57439;Laerm;43282;47.188;8.896;2022-07-29T14:07:24;59.62;45.77;71.43;;
57439;Laerm;43282;47.188;8.896;2022-07-29T14:09:49;61.55;46.69;73.33;;
57439;Laerm;43282;47.188;8.896;2022-07-29T14:12:15;57.93;46.30;68.83;;
57439;Laerm;43282;47.188;8.896;2022-07-29T14:14:40;60.49;46.59;73.54;;
57439;Laerm;43282;47.188;8.896;2022-07-29T14:17:06;60.80;49.49;72.56;;
57439;Laerm;43282;47.188;8.896;2022-07-29T14:19:32;60.88;51.49;71.09;;
57439;Laerm;43282;47.188;8.896;2022-07-29T14:22:00;61.72;52.96;72.07;;